Time;durP1;ratioP1;P1;durP2;ratioP2;P2;SDS_P1;SDS_P2;PMS_P1;PMS_P2;Temp;Humidity;BMP_temperature;BMP_pressure;BME280_temperature;BME280_humidity;BME280_pressure;Samples;Min_cycle;Max_cycle;Signal;HPM_P1;HPM_P2
2021/11/03 00:02:11;;;;;;;24.07;14.60;;;5.70;99.90;;;;;;5074698;28;20231;-64
2021/11/03 00:04:42;;;;;;;24.60;13.50;;;5.70;1.00;;;;;;5074673;28;20274;-64
2021/11/03 00:07:10;;;;;;;27.77;15.20;;;5.60;1.00;;;;;;5074798;28;20668;-64
2021/11/03 00:09:38;;;;;;;30.07;15.07;;;5.70;1.00;;;;;;5074857;28;20200;-64
2021/11/03 00:12:10;;;;;;;25.27;14.73;;;5.70;18.00;;;;;;5074833;28;20259;-64
2021/11/03 00:14:38;;;;;;;32.23;15.00;;;5.70;40.40;;;;;;5074211;28;20258;-64
2021/11/03 00:17:05;;;;;;;32.37;16.57;;;5.60;26.10;;;;;;5074838;28;20302;-64
2021/11/03 00:19:31;;;;;;;26.83;14.10;;;5.70;99.90;;;;;;5074615;28;20227;-64
2021/11/03 00:21:58;;;;;;;27.83;15.83;;;5.70;99.90;;;;;;5074600;28;20228;-64
2021/11/03 00:24:25;;;;;;;30.37;16.50;;;5.60;99.90;;;;;;5074393;28;20211;-63
2021/11/03 00:26:51;;;;;;;29.67;16.30;;;5.70;99.90;;;;;;5074221;28;20209;-64
2021/11/03 00:29:19;;;;;;;26.33;16.23;;;5.60;99.90;;;;;;5074302;28;20672;-64
2021/11/03 00:31:46;;;;;;;33.37;16.73;;;5.60;99.90;;;;;;5074409;28;20265;-63
2021/11/03 00:34:13;;;;;;;30.13;16.40;;;5.60;99.90;;;;;;5074505;28;20257;-64
2021/11/03 00:36:39;;;;;;;28.50;15.80;;;5.60;99.90;;;;;;5073912;28;20216;-64
2021/11/03 00:39:06;;;;;;;30.70;16.80;;;5.50;99.90;;;;;;5074246;28;20236;-64
2021/11/03 00:41:33;;;;;;;28.03;15.63;;;5.50;64.70;;;;;;5073991;28;20207;-63
2021/11/03 00:43:59;;;;;;;29.10;16.17;;;5.50;1.20;;;;;;5074055;28;20234;-64
2021/11/03 00:46:27;;;;;;;26.90;15.77;;;5.40;1.00;;;;;;5073937;28;20205;-64
2021/11/03 00:48:54;;;;;;;29.43;16.07;;;5.40;1.00;;;;;;5074183;28;20200;-64
2021/11/03 00:51:21;;;;;;;35.33;17.77;;;5.40;1.00;;;;;;5073892;28;20256;-63
2021/11/03 00:53:48;;;;;;;28.73;16.63;;;5.40;1.00;;;;;;5073767;28;20711;-64
2021/11/03 00:56:15;;;;;;;30.77;17.00;;;5.30;1.00;;;;;;5072859;28;20212;-64
2021/11/03 00:58:41;;;;;;;33.07;18.37;;;5.30;96.50;;;;;;5073268;28;20233;-63
2021/11/03 01:01:09;;;;;;;33.80;17.53;;;5.30;99.90;;;;;;5074010;28;20260;-64
2021/11/03 01:03:37;;;;;;;29.60;17.57;;;5.30;99.90;;;;;;5073601;28;20235;-64
2021/11/03 01:06:03;;;;;;;26.03;16.47;;;5.40;99.90;;;;;;5073541;28;20208;-64
2021/11/03 01:08:30;;;;;;;27.50;16.10;;;5.40;99.90;;;;;;5073657;28;20204;-64
2021/11/03 01:10:57;;;;;;;33.30;17.57;;;5.30;99.90;;;;;;5073354;28;20211;-64
2021/11/03 01:13:25;;;;;;;27.80;17.03;;;5.30;99.90;;;;;;5073843;28;20281;-63
2021/11/03 01:15:52;;;;;;;29.07;16.33;;;5.20;99.90;;;;;;5073131;28;20266;-63
2021/11/03 01:18:19;;;;;;;25.53;16.10;;;5.30;1.00;;;;;;5073715;28;20227;-64
2021/11/03 01:20:48;;;;;;;25.30;15.63;;;5.30;99.90;;;;;;5073392;28;20211;-64
2021/11/03 01:23:15;;;;;;;26.10;15.27;;;5.30;99.90;;;;;;5073249;28;20222;-64
2021/11/03 01:25:42;;;;;;;25.27;15.80;;;5.20;99.90;;;;;;5072783;28;20205;-64
2021/11/03 01:28:09;;;;;;;26.60;16.63;;;5.20;99.90;;;;;;5073547;28;20295;-63
2021/11/03 01:30:36;;;;;;;29.70;16.53;;;5.10;45.70;;;;;;5073383;28;20628;-63
2021/11/03 01:33:03;;;;;;;29.07;16.27;;;5.10;1.00;;;;;;5073165;28;20306;-64
2021/11/03 01:35:30;;;;;;;33.83;17.93;;;5.00;1.00;;;;;;5072906;28;20566;-64
2021/11/03 01:37:58;;;;;;;35.13;19.33;;;4.90;1.00;;;;;;5072678;28;20207;-64
2021/11/03 01:40:28;;;;;;;40.67;19.50;;;4.90;99.90;;;;;;5073400;28;20223;-63
2021/11/03 01:42:56;;;;;;;34.20;18.10;;;4.90;1.00;;;;;;5073018;28;20635;-63
2021/11/03 01:45:25;;;;;;;34.87;19.57;;;4.90;1.00;;;;;;5072778;28;20259;-64
2021/11/03 01:47:54;;;;;;;37.37;19.33;;;4.90;34.20;;;;;;5072727;28;20229;-64
2021/11/03 01:50:33;;;;;;;37.67;19.03;;;4.90;99.90;;;;;;5072785;28;20745;-64
2021/11/03 01:53:05;;;;;;;40.33;20.13;;;4.90;99.90;;;;;;5072755;28;20295;-64
2021/11/03 01:55:32;;;;;;;35.73;19.23;;;4.90;99.90;;;;;;5072584;28;20230;-64
2021/11/03 01:58:06;;;;;;;36.20;19.57;;;4.90;78.80;;;;;;5072759;28;20211;-64
2021/11/03 02:00:37;;;;;;;35.43;18.93;;;4.90;94.40;;;;;;5072512;28;20233;-64
2021/11/03 02:03:09;;;;;;;37.60;17.87;;;4.90;50.90;;;;;;5072352;28;20226;-64
2021/11/03 02:05:37;;;;;;;31.90;16.97;;;4.90;74.00;;;;;;5072458;28;20204;-64
2021/11/03 02:08:07;;;;;;;33.70;16.97;;;4.90;43.00;;;;;;5072286;28;20212;-64
2021/11/03 02:10:34;;;;;;;35.67;18.70;;;4.90;1.00;;;;;;5072492;28;20215;-64
2021/11/03 02:13:02;;;;;;;33.97;18.07;;;4.90;1.00;;;;;;5072412;28;20231;-63
2021/11/03 02:15:29;;;;;;;31.73;18.00;;;4.90;59.00;;;;;;5071801;28;20361;-63
2021/11/03 02:17:56;;;;;;;32.13;17.07;;;4.90;1.00;;;;;;5072684;28;20263;-64
2021/11/03 02:20:26;;;;;;;31.43;17.07;;;4.90;1.00;;;;;;5072352;28;20227;-64
2021/11/03 02:23:02;;;;;;;26.77;16.67;;;4.90;1.00;;;;;;5072147;28;20235;-64
2021/11/03 02:25:35;;;;;;;35.60;17.53;;;4.90;99.90;;;;;;5072028;28;20208;-63
2021/11/03 02:28:04;;;;;;;33.60;17.47;;;4.90;99.90;;;;;;5071991;28;20215;-64
2021/11/03 02:30:31;;;;;;;30.33;17.07;;;4.90;99.90;;;;;;5072318;28;20214;-64
2021/11/03 02:33:01;;;;;;;30.10;17.07;;;4.90;99.90;;;;;;5072144;28;20236;-64
2021/11/03 02:35:28;;;;;;;30.53;16.57;;;4.90;99.90;;;;;;5071845;28;20283;-64
2021/11/03 02:37:57;;;;;;;29.70;17.37;;;4.90;99.90;;;;;;5071710;28;20273;-63
2021/11/03 02:40:37;;;;;;;30.97;16.87;;;4.80;99.90;;;;;;5071945;28;20284;-64
2021/11/03 02:43:09;;;;;;;30.43;16.73;;;4.90;99.90;;;;;;5072097;28;20313;-64
2021/11/03 02:45:42;;;;;;;27.80;15.53;;;4.90;99.90;;;;;;5071858;28;20210;-63
2021/11/03 02:48:09;;;;;;;28.73;15.97;;;4.90;93.70;;;;;;5072085;28;20580;-62
2021/11/03 02:50:36;;;;;;;29.17;15.63;;;4.90;34.80;;;;;;5071833;28;20689;-64
2021/11/03 02:53:03;;;;;;;27.53;15.73;;;4.90;44.10;;;;;;5071676;28;20230;-64
2021/11/03 02:55:30;;;;;;;28.53;15.70;;;4.80;99.90;;;;;;5071669;28;20206;-63
2021/11/03 02:57:58;;;;;;;28.67;15.37;;;4.90;25.80;;;;;;5072088;28;20215;-64
2021/11/03 03:00:25;;;;;;;27.90;14.57;;;4.90;3.60;;;;;;5071803;28;20289;-64
2021/11/03 03:02:53;;;;;;;27.47;15.00;;;5.00;99.90;;;;;;5071584;28;20230;-62
2021/11/03 03:05:20;;;;;;;25.53;14.73;;;5.00;95.90;;;;;;5071343;28;20667;-64
2021/11/03 03:07:46;;;;;;;27.30;15.47;;;4.90;99.90;;;;;;5071693;28;20618;-64
2021/11/03 03:10:13;;;;;;;25.87;14.87;;;4.80;99.90;;;;;;5071908;28;20209;-64
2021/11/03 03:12:40;;;;;;;24.80;14.50;;;4.80;99.90;;;;;;5071796;28;20226;-63
2021/11/03 03:15:09;;;;;;;23.47;14.13;;;4.80;99.90;;;;;;5071535;28;20202;-64
2021/11/03 03:17:35;;;;;;;21.37;12.80;;;4.80;99.90;;;;;;5071711;28;20264;-64
2021/11/03 03:20:02;;;;;;;24.93;12.80;;;4.80;18.10;;;;;;5072127;28;20232;-63
2021/11/03 03:22:29;;;;;;;23.10;13.70;;;4.80;1.00;;;;;;5075680;28;20282;-64
2021/11/03 03:24:56;;;;;;;23.63;12.50;;;4.80;1.00;;;;;;5075279;28;20739;-64
2021/11/03 03:27:22;;;;;;;20.73;12.23;;;4.80;1.00;;;;;;5075616;28;20206;-62
2021/11/03 03:29:49;;;;;;;20.27;12.83;;;4.80;1.00;;;;;;5075559;28;20203;-64
2021/11/03 03:32:17;;;;;;;23.37;12.93;;;4.80;1.00;;;;;;5075299;28;20833;-64
2021/11/03 03:34:44;;;;;;;19.17;12.13;;;4.90;99.90;;;;;;5075640;28;20205;-64
2021/11/03 03:37:11;;;;;;;20.67;11.47;;;4.90;99.90;;;;;;5076310;28;20207;-63
2021/11/03 03:39:38;;;;;;;17.00;11.67;;;4.90;99.90;;;;;;5075612;28;20224;-64
2021/11/03 03:42:09;;;;;;;18.00;11.37;;;4.90;99.90;;;;;;5075335;28;20231;-64
2021/11/03 03:44:37;;;;;;;20.83;11.43;;;4.80;96.80;;;;;;5075099;28;20222;-63
2021/11/03 03:47:05;;;;;;;20.73;12.20;;;4.70;55.00;;;;;;5075274;28;20260;-63
2021/11/03 03:49:33;;;;;;;19.63;11.87;;;4.70;25.90;;;;;;5075463;28;20222;-64
2021/11/03 03:52:01;;;;;;;21.17;11.67;;;4.70;1.00;;;;;;5075253;28;20292;-64
2021/11/03 03:54:28;;;;;;;21.27;12.10;;;4.60;1.00;;;;;;5075298;28;20211;-63
2021/11/03 03:56:55;;;;;;;23.70;13.07;;;4.50;1.00;;;;;;5075070;28;20300;-62
2021/11/03 03:59:22;;;;;;;23.63;12.30;;;4.50;99.90;;;;;;5075077;28;20230;-63
2021/11/03 04:01:49;;;;;;;26.87;13.43;;;4.50;99.90;;;;;;5074682;28;20202;-64
2021/11/03 04:04:16;;;;;;;25.00;12.70;;;4.50;1.00;;;;;;5074891;28;20247;-63
2021/11/03 04:06:44;;;;;;;26.73;13.00;;;4.60;99.90;;;;;;5074537;28;20560;-64
2021/11/03 04:09:11;;;;;;;21.70;13.30;;;4.60;99.90;;;;;;5074877;28;20414;-64
2021/11/03 04:11:39;;;;;;;25.70;13.90;;;4.60;1.00;;;;;;5074687;28;20214;-64
2021/11/03 04:14:06;;;;;;;28.17;14.57;;;4.70;1.00;;;;;;5074616;28;20205;-62
2021/11/03 04:16:33;;;;;;;23.63;12.67;;;4.70;1.00;;;;;;5074492;28;20247;-64
2021/11/03 04:19:00;;;;;;;26.20;13.10;;;4.70;1.00;;;;;;5074529;28;20926;-64
2021/11/03 04:21:26;;;;;;;24.37;13.60;;;4.80;22.40;;;;;;5074721;28;20207;-64
2021/11/03 04:23:54;;;;;;;21.83;13.27;;;4.80;1.00;;;;;;5074943;28;20226;-63
2021/11/03 04:26:24;;;;;;;24.57;13.50;;;4.80;1.00;;;;;;5074497;28;20675;-63
2021/11/03 04:28:52;;;;;;;21.40;12.60;;;4.80;1.00;;;;;;5074752;28;20702;-63
2021/11/03 04:31:20;;;;;;;23.93;12.70;;;4.80;1.00;;;;;;5074386;28;20290;-64
2021/11/03 04:33:48;;;;;;;19.70;12.00;;;4.80;1.00;;;;;;5074414;28;20279;-63
2021/11/03 04:36:15;;;;;;;17.10;11.50;;;4.80;1.00;;;;;;5074092;28;20233;-64
2021/11/03 04:38:42;;;;;;;20.63;10.90;;;4.80;1.00;;;;;;5074093;28;20267;-64
2021/11/03 04:41:10;;;;;;;18.03;10.20;;;4.90;1.00;;;;;;5074136;28;20226;-63
2021/11/03 04:43:36;;;;;;;19.13;10.43;;;4.90;1.00;;;;;;5074427;28;20232;-63
2021/11/03 04:46:03;;;;;;;18.90;10.97;;;4.90;1.00;;;;;;5072421;28;20211;-63
2021/11/03 04:48:30;;;;;;;21.57;9.83;;;4.90;24.10;;;;;;5072213;28;20218;-63
2021/11/03 04:50:56;;;;;;;19.50;9.93;;;5.00;1.00;;;;;;5073877;28;20583;-62
2021/11/03 04:53:24;;;;;;;16.10;8.83;;;5.00;1.00;;;;;;5073901;28;20718;-63
2021/11/03 04:55:51;;;;;;;15.33;7.93;;;5.00;99.90;;;;;;5073314;28;20211;-62
2021/11/03 04:58:19;;;;;;;15.17;8.90;;;5.10;99.90;;;;;;5074254;28;20205;-64
2021/11/03 05:00:48;;;;;;;13.23;9.03;;;5.10;99.90;;;;;;5073821;28;20227;-64
2021/11/03 05:03:15;;;;;;;15.10;8.90;;;5.10;99.90;;;;;;5073469;28;20332;-62
2021/11/03 05:05:41;;;;;;;13.90;8.30;;;5.10;93.00;;;;;;5073534;28;20210;-64
2021/11/03 05:08:08;;;;;;;14.67;8.93;;;5.20;1.00;;;;;;5073594;28;20209;-64
2021/11/03 05:10:35;;;;;;;16.20;9.37;;;5.20;1.00;;;;;;5073558;28;20702;-63
2021/11/03 05:13:01;;;;;;;12.40;8.30;;;5.10;1.00;;;;;;5073582;28;20227;-64
2021/11/03 05:15:29;;;;;;;12.63;8.63;;;5.10;1.00;;;;;;5073325;28;20617;-64
2021/11/03 05:17:56;;;;;;;13.97;8.07;;;5.20;99.90;;;;;;5073490;28;20209;-66
2021/11/03 05:20:23;;;;;;;13.23;8.63;;;5.20;99.90;;;;;;5070313;28;20225;-63
2021/11/03 05:22:50;;;;;;;14.37;8.63;;;5.20;99.90;;;;;;5073036;28;20670;-63
2021/11/03 05:25:18;;;;;;;13.27;8.53;;;5.20;99.90;;;;;;5072873;28;20215;-63
2021/11/03 05:27:45;;;;;;;12.33;7.90;;;5.20;65.60;;;;;;5073080;28;20217;-62
2021/11/03 05:30:12;;;;;;;11.53;7.67;;;5.20;8.90;;;;;;5073412;28;20205;-62
2021/11/03 05:32:41;;;;;;;14.40;8.97;;;5.30;1.00;;;;;;5069153;28;20220;-62
2021/11/03 05:35:08;;;;;;;13.97;8.03;;;5.20;1.00;;;;;;5071896;28;20267;-61
2021/11/03 05:37:35;;;;;;;15.50;8.37;;;5.20;1.00;;;;;;5072626;28;20263;-62
2021/11/03 05:40:01;;;;;;;12.67;8.07;;;5.20;1.00;;;;;;5072894;28;20243;-62
2021/11/03 05:42:28;;;;;;;13.07;6.97;;;5.20;1.00;;;;;;5072493;28;20224;-62
2021/11/03 05:44:55;;;;;;;10.30;6.80;;;5.20;1.00;;;;;;5072190;28;20213;-62
2021/11/03 05:47:25;;;;;;;10.00;6.63;;;5.20;99.90;;;;;;5072742;28;20212;-61
2021/11/03 05:49:53;;;;;;;12.37;6.87;;;5.30;99.90;;;;;;5072492;28;20589;-61
2021/11/03 05:52:20;;;;;;;13.93;6.50;;;5.30;99.90;;;;;;5072353;28;20231;-61
2021/11/03 05:54:47;;;;;;;12.13;7.20;;;5.30;99.90;;;;;;5072482;28;20262;-61
2021/11/03 05:57:22;;;;;;;10.90;6.50;;;5.30;90.20;;;;;;5072608;28;20208;-61
2021/11/03 05:59:50;;;;;;;11.93;6.80;;;5.30;38.20;;;;;;5072577;28;20638;-59
2021/11/03 06:02:16;;;;;;;12.50;6.97;;;5.30;7.00;;;;;;5072219;28;20228;-60
2021/11/03 06:04:43;;;;;;;11.23;7.27;;;5.30;2.70;;;;;;5072016;28;20215;-60
2021/11/03 06:07:12;;;;;;;10.57;6.90;;;5.30;1.00;;;;;;5072466;28;20298;-59
2021/11/03 06:09:39;;;;;;;11.17;8.10;;;5.30;1.00;;;;;;5072610;28;20604;-59
2021/11/03 06:12:07;;;;;;;12.17;7.10;;;5.40;1.00;;;;;;5072278;28;20239;-59
2021/11/03 06:14:34;;;;;;;11.83;7.70;;;5.40;1.00;;;;;;5071907;28;20742;-60
2021/11/03 06:17:01;;;;;;;13.67;8.20;;;5.30;1.00;;;;;;5072499;28;20231;-59
2021/11/03 06:19:28;;;;;;;13.43;7.67;;;5.40;1.00;;;;;;5072348;28;20843;-60
2021/11/03 06:21:55;;;;;;;10.77;6.77;;;5.40;1.00;;;;;;5072457;28;20289;-63
2021/11/03 06:24:27;;;;;;;14.30;7.23;;;5.30;1.00;;;;;;5061081;28;20212;-63
2021/11/03 06:26:54;;;;;;;14.83;7.43;;;5.30;1.00;;;;;;5071143;28;20205;-62
2021/11/03 06:29:21;;;;;;;11.03;7.03;;;5.40;1.00;;;;;;5071918;28;20608;-63
2021/11/03 06:31:48;;;;;;;10.53;7.23;;;5.40;1.00;;;;;;5071726;28;20212;-62
2021/11/03 06:34:14;;;;;;;12.30;7.07;;;5.40;1.00;;;;;;5071900;28;20270;-62
2021/11/03 06:36:41;;;;;;;11.37;6.93;;;5.40;1.00;;;;;;5071493;28;20212;-61
2021/11/03 06:39:09;;;;;;;12.80;7.60;;;5.40;99.90;;;;;;5071915;28;20205;-62
2021/11/03 06:41:38;;;;;;;12.70;7.67;;;5.30;99.90;;;;;;5071473;28;20767;-62
2021/11/03 06:44:06;;;;;;;14.13;9.47;;;5.30;99.90;;;;;;5071254;28;20317;-60
2021/11/03 06:46:32;;;;;;;14.97;9.33;;;5.30;99.90;;;;;;5071181;28;20597;-62
2021/11/03 06:49:00;;;;;;;14.57;9.67;;;5.20;99.90;;;;;;5071576;28;20204;-60
2021/11/03 06:51:27;;;;;;;20.93;12.23;;;5.20;1.00;;;;;;5071470;28;20201;-65
2021/11/03 06:53:53;;;;;;;17.97;11.50;;;5.20;1.00;;;;;;5071260;28;20231;-60
2021/11/03 06:56:20;;;;;;;16.13;11.03;;;5.20;1.00;;;;;;5071245;28;20205;-58
2021/11/03 06:58:48;;;;;;;16.57;10.20;;;5.30;1.00;;;;;;5070859;28;20212;-58
2021/11/03 07:01:15;;;;;;;18.03;10.10;;;5.40;1.00;;;;;;5071679;28;20223;-61
2021/11/03 07:03:44;;;;;;;15.37;8.90;;;5.50;1.00;;;;;;5071090;28;20241;-62
2021/11/03 07:06:10;;;;;;;15.30;8.77;;;5.50;99.90;;;;;;5070517;28;20213;-60
2021/11/03 07:08:37;;;;;;;13.83;8.83;;;5.50;99.90;;;;;;5071386;28;20205;-63
2021/11/03 07:11:04;;;;;;;16.57;9.40;;;5.50;99.90;;;;;;5071164;28;20576;-62
2021/11/03 07:13:31;;;;;;;15.47;8.80;;;5.50;99.90;;;;;;5070839;28;20225;-63
2021/11/03 07:15:59;;;;;;;15.43;9.00;;;5.60;99.90;;;;;;5070836;28;20289;-63
2021/11/03 07:18:27;;;;;;;16.23;8.83;;;5.50;99.90;;;;;;5071463;28;20261;-61
2021/11/03 07:20:54;;;;;;;16.47;9.37;;;5.40;99.90;;;;;;5071105;28;20273;-63
2021/11/03 07:23:23;;;;;;;14.47;8.87;;;5.50;99.90;;;;;;5071287;28;20240;-63
2021/11/03 07:25:50;;;;;;;14.10;9.00;;;5.50;99.90;;;;;;5070573;28;20205;-63
2021/11/03 07:28:17;;;;;;;13.73;8.80;;;5.60;99.90;;;;;;5071079;28;20687;-62
2021/11/03 07:30:45;;;;;;;14.83;9.43;;;5.60;99.90;;;;;;5071240;28;20204;-63
2021/11/03 07:33:14;;;;;;;17.07;9.53;;;5.50;99.90;;;;;;5070751;28;20227;-62
2021/11/03 07:35:41;;;;;;;15.73;10.20;;;5.50;99.90;;;;;;5070865;28;20632;-63
2021/11/03 07:38:10;;;;;;;14.17;9.00;;;5.50;99.90;;;;;;5070948;28;20205;-63
2021/11/03 07:40:40;;;;;;;16.57;9.30;;;5.50;99.90;;;;;;5070793;28;20231;-63
2021/11/03 07:43:09;;;;;;;19.53;10.43;;;5.50;99.90;;;;;;5070269;28;20275;-62
2021/11/03 07:45:37;;;;;;;16.30;9.23;;;5.60;99.90;;;;;;5070396;28;20300;-64
2021/11/03 07:48:06;;;;;;;13.60;8.87;;;5.50;99.90;;;;;;5071003;28;20212;-63
2021/11/03 07:50:39;;;;;;;14.80;8.53;;;5.60;99.90;;;;;;5070859;28;20293;-63
2021/11/03 07:53:07;;;;;;;17.73;11.23;;;5.50;99.90;;;;;;5070466;28;20239;-64
2021/11/03 07:55:35;;;;;;;14.27;8.70;;;5.50;99.90;;;;;;5070603;28;20238;-63
2021/11/03 07:58:01;;;;;;;13.87;9.10;;;5.50;99.90;;;;;;5070985;28;20223;-63
2021/11/03 08:00:30;;;;;;;11.37;8.43;;;5.60;99.90;;;;;;5070890;28;20221;-64
2021/11/03 08:02:57;;;;;;;20.60;9.30;;;5.70;99.90;;;;;;5070475;28;20221;-64
2021/11/03 08:05:27;;;;;;;16.30;9.20;;;5.70;99.90;;;;;;5070256;28;20213;-63
2021/11/03 08:07:56;;;;;;;12.97;9.43;;;5.70;99.90;;;;;;5074122;28;20211;-64
2021/11/03 08:10:24;;;;;;;16.60;10.17;;;5.80;99.90;;;;;;5074602;28;20208;-61
2021/11/03 08:12:52;;;;;;;16.50;9.43;;;5.80;99.90;;;;;;5074128;28;20225;-61
2021/11/03 08:15:19;;;;;;;16.37;10.63;;;5.90;99.90;;;;;;5073721;28;20772;-62
2021/11/03 08:17:46;;;;;;;18.30;11.03;;;6.00;99.90;;;;;;5074183;28;20209;-63
2021/11/03 08:20:19;;;;;;;18.27;10.80;;;6.00;99.90;;;;;;5073947;28;20622;-63
2021/11/03 08:22:46;;;;;;;16.43;10.53;;;6.00;99.90;;;;;;5073883;28;20233;-63
2021/11/03 08:25:14;;;;;;;18.50;10.63;;;6.10;99.90;;;;;;5073458;28;20213;-64
2021/11/03 08:27:41;;;;;;;23.03;11.20;;;6.10;18.20;;;;;;5074027;28;20673;-63
2021/11/03 08:30:10;;;;;;;20.93;11.80;;;6.10;1.00;;;;;;5073945;28;20213;-62
2021/11/03 08:32:39;;;;;;;16.33;10.83;;;6.00;1.00;;;;;;5073661;28;20274;-63
2021/11/03 08:35:07;;;;;;;18.70;11.17;;;6.00;1.00;;;;;;5073487;28;20208;-63
2021/11/03 08:37:37;;;;;;;17.57;11.60;;;5.90;1.00;;;;;;5073944;28;20209;-64
2021/11/03 08:40:09;;;;;;;18.93;12.23;;;5.90;1.00;;;;;;5073750;28;20205;-63
2021/11/03 08:42:37;;;;;;;18.10;11.57;;;5.90;1.00;;;;;;5073570;28;20281;-64
2021/11/03 08:45:06;;;;;;;22.10;12.83;;;5.80;1.00;;;;;;5072743;28;20204;-64
2021/11/03 08:47:33;;;;;;;20.63;13.90;;;5.80;1.00;;;;;;5073915;28;20281;-63
2021/11/03 08:50:00;;;;;;;19.57;12.37;;;5.80;1.00;;;;;;5073498;28;20205;-65
2021/11/03 08:52:26;;;;;;;25.80;13.40;;;5.90;1.50;;;;;;5073495;28;20228;-64
2021/11/03 08:54:53;;;;;;;21.70;13.47;;;5.90;2.30;;;;;;5072929;28;20258;-61
2021/11/03 08:57:20;;;;;;;22.70;13.80;;;5.90;19.40;;;;;;5073460;28;20209;-64
2021/11/03 08:59:49;;;;;;;20.70;13.30;;;6.00;42.00;;;;;;5073124;28;20345;-64
2021/11/03 09:02:15;;;;;;;21.40;14.30;;;6.00;99.90;;;;;;5073338;28;20236;-63
2021/11/03 09:04:43;;;;;;;20.83;14.50;;;6.00;68.80;;;;;;5072504;28;20260;-64
2021/11/03 09:07:12;;;;;;;21.90;12.57;;;6.00;1.00;;;;;;5072994;28;20211;-64
2021/11/03 09:09:39;;;;;;;21.77;13.20;;;6.10;1.00;;;;;;5073324;28;20205;-64
2021/11/03 09:12:07;;;;;;;26.20;13.27;;;6.10;1.00;;;;;;5072780;28;20221;-62
2021/11/03 09:14:34;;;;;;;25.83;12.53;;;6.10;1.00;;;;;;5072837;28;20651;-63
2021/11/03 09:17:03;;;;;;;21.47;12.40;;;6.20;1.00;;;;;;5072732;28;20258;-62
2021/11/03 09:19:30;;;;;;;19.63;12.53;;;6.20;1.00;;;;;;5072335;28;20205;-62
2021/11/03 09:21:56;;;;;;;20.93;12.53;;;6.30;1.00;;;;;;5072570;28;20754;-63
2021/11/03 09:24:23;;;;;;;19.30;12.17;;;6.30;99.90;;;;;;5072707;28;20290;-65
2021/11/03 09:26:50;;;;;;;17.73;12.07;;;6.40;99.90;;;;;;5071969;28;20209;-64
2021/11/03 09:29:17;;;;;;;17.27;11.63;;;6.40;99.90;;;;;;5072972;28;20216;-65
2021/11/03 09:31:44;;;;;;;20.83;11.13;;;6.40;99.90;;;;;;5072898;28;20201;-63
2021/11/03 09:34:13;;;;;;;19.70;13.47;;;6.40;99.90;;;;;;5072547;28;20295;-63
2021/11/03 09:36:42;;;;;;;21.17;11.60;;;6.40;99.90;;;;;;5072320;28;20209;-66
2021/11/03 09:39:10;;;;;;;20.83;12.03;;;6.40;99.90;;;;;;5072527;28;20232;-64
2021/11/03 09:41:43;;;;;;;17.87;11.50;;;6.40;99.90;;;;;;5072630;28;20236;-64
2021/11/03 09:44:18;;;;;;;20.07;12.37;;;6.40;99.90;;;;;;5072660;28;20205;-64
2021/11/03 09:46:47;;;;;;;20.13;12.33;;;6.50;99.90;;;;;;5072585;28;20194;-64
2021/11/03 09:49:23;;;;;;;24.30;12.57;;;6.50;99.90;;;;;;5072431;28;20201;-63
2021/11/03 09:51:53;;;;;;;23.33;12.70;;;6.60;99.90;;;;;;5071884;28;20205;-63
2021/11/03 09:54:24;;;;;;;19.73;13.00;;;6.60;99.90;;;;;;5072318;28;20205;-63
2021/11/03 09:56:57;;;;;;;22.87;12.73;;;6.60;99.90;;;;;;5071991;28;20235;-63
2021/11/03 09:59:35;;;;;;;22.37;14.20;;;6.60;99.90;;;;;;5072341;28;20763;-67
2021/11/03 10:02:17;;;;;;;24.33;14.37;;;6.50;99.90;;;;;;5071876;28;20239;-64
2021/11/03 10:05:14;;;;;;;22.23;14.40;;;6.50;99.90;;;;;;5071620;28;20298;-64
2021/11/03 10:07:49;;;;;;;20.40;13.53;;;6.60;99.90;;;;;;5066726;28;20208;-64
2021/11/03 10:10:24;;;;;;;24.17;14.43;;;6.60;99.90;;;;;;5072204;28;20212;-65
2021/11/03 10:12:51;;;;;;;19.90;12.17;;;6.60;99.90;;;;;;5071884;28;20660;-66
2021/11/03 10:15:20;;;;;;;22.33;13.93;;;6.60;99.90;;;;;;5071657;28;20201;-67
2021/11/03 10:18:10;;;;;;;22.93;14.33;;;6.60;99.90;;;;;;5072052;28;20213;-67
2021/11/03 10:20:42;;;;;;;23.73;14.17;;;6.60;99.90;;;;;;5071827;28;20214;-65
2021/11/03 10:23:17;;;;;;;22.77;13.40;;;6.70;99.90;;;;;;5071367;28;20224;-66
2021/11/03 10:25:48;;;;;;;19.00;12.90;;;6.70;99.90;;;;;;5071407;28;20584;-61
2021/11/03 10:28:28;;;;;;;20.70;12.53;;;6.80;99.90;;;;;;5071830;28;20296;-65
2021/11/03 10:30:55;;;;;;;21.90;13.37;;;6.90;99.90;;;;;;5070788;28;20255;-62
2021/11/03 10:33:28;;;;;;;23.57;14.97;;;6.90;99.90;;;;;;5070915;28;20233;-62
2021/11/03 10:36:02;;;;;;;20.27;13.17;;;7.00;99.90;;;;;;5070619;28;20204;-61
2021/11/03 10:38:40;;;;;;;21.10;13.53;;;7.00;99.90;;;;;;5071823;28;20208;-62
2021/11/03 10:41:17;;;;;;;31.27;18.50;;;7.00;99.90;;;;;;5071398;28;20278;-63
2021/11/03 10:43:44;;;;;;;17.20;12.13;;;7.10;99.90;;;;;;5071067;28;20233;-63
2021/11/03 10:46:18;;;;;;;19.23;12.90;;;7.10;94.50;;;;;;5071273;28;20209;-65
2021/11/03 10:48:55;;;;;;;22.73;13.97;;;7.20;76.90;;;;;;5071416;28;20205;-64
2021/11/03 10:51:34;;;;;;;19.03;12.73;;;7.20;82.40;;;;;;5054407;28;20262;-64
2021/11/03 10:54:06;;;;;;;19.00;12.00;;;7.20;70.50;;;;;;5071060;28;20219;-63
2021/11/03 10:56:35;;;;;;;22.40;15.67;;;7.20;74.90;;;;;;5071198;28;20201;-64
2021/11/03 10:59:06;;;;;;;19.13;12.60;;;7.20;65.30;;;;;;5071200;28;20209;-61
2021/11/03 11:01:39;;;;;;;20.67;14.13;;;7.30;57.90;;;;;;5071403;28;20225;-61
2021/11/03 11:04:13;;;;;;;20.73;14.17;;;7.20;28.60;;;;;;5070831;28;20300;-64
2021/11/03 11:06:47;;;;;;;23.07;14.43;;;7.20;26.70;;;;;;5070934;28;20197;-63
2021/11/03 11:09:24;;;;;;;24.47;13.90;;;7.20;39.00;;;;;;5071465;28;20209;-63
2021/11/03 11:11:57;;;;;;;24.47;14.47;;;7.30;69.20;;;;;;5071340;28;20292;-61
2021/11/03 11:14:25;;;;;;;22.03;14.40;;;7.30;99.90;;;;;;5070502;28;20213;-61
2021/11/03 11:16:58;;;;;;;22.07;13.90;;;7.40;99.90;;;;;;5070687;28;20205;-61
2021/11/03 11:19:35;;;;;;;29.37;17.57;;;7.50;42.70;;;;;;5070938;28;20747;-61
2021/11/03 11:22:13;;;;;;;21.40;13.60;;;7.40;3.00;;;;;;5071006;28;20231;-62
2021/11/03 11:24:50;;;;;;;20.37;14.00;;;7.50;2.90;;;;;;5070342;28;20204;-61
2021/11/03 11:27:23;;;;;;;28.60;15.13;;;7.40;1.00;;;;;;5071030;28;20208;-61
2021/11/03 11:29:57;;;;;;;23.77;15.03;;;7.40;2.80;;;;;;5071341;28;20286;-61
2021/11/03 11:32:33;;;;;;;22.40;14.43;;;7.40;3.00;;;;;;5071332;28;20231;-60
2021/11/03 11:35:15;;;;;;;24.93;13.07;;;7.30;2.80;;;;;;5070500;28;20664;-60
2021/11/03 11:37:56;;;;;;;23.90;14.10;;;7.30;2.90;;;;;;5071224;28;20579;-67
2021/11/03 11:40:35;;;;;;;25.67;16.90;;;7.50;52.90;;;;;;5071921;28;20212;-65
2021/11/03 11:43:07;;;;;;;22.13;13.77;;;7.70;99.90;;;;;;5074597;28;20233;-62
2021/11/03 11:45:37;;;;;;;22.53;14.83;;;7.90;99.90;;;;;;5073965;28;20291;-61
2021/11/03 11:48:07;;;;;;;21.77;14.70;;;7.80;22.50;;;;;;5074824;28;20296;-61
2021/11/03 11:50:40;;;;;;;27.20;15.53;;;7.70;1.00;;;;;;5074310;28;20219;-62
2021/11/03 11:53:23;;;;;;;25.30;17.13;;;7.60;1.00;;;;;;5074560;28;20270;-62
2021/11/03 11:56:22;;;;;;;28.10;16.43;;;7.60;3.10;;;;;;5074292;28;20205;-62
2021/11/03 11:58:52;;;;;;;33.07;17.20;;;7.60;42.60;;;;;;5074349;28;20212;-61
2021/11/03 12:01:29;;;;;;;24.80;15.60;;;7.60;44.00;;;;;;5074689;28;20213;-61
2021/11/03 12:04:24;;;;;;;25.20;15.93;;;7.50;71.20;;;;;;5073895;28;20240;-59
2021/11/03 12:07:22;;;;;;;28.23;16.17;;;7.50;98.30;;;;;;5074108;28;20262;-62
2021/11/03 12:10:16;;;;;;;30.50;16.50;;;7.50;99.90;;;;;;5039985;28;20209;-61
2021/11/03 12:13:18;;;;;;;24.87;15.87;;;7.50;99.90;;;;;;5074366;28;20307;-60
2021/11/03 12:16:12;;;;;;;28.47;17.43;;;7.40;99.90;;;;;;5074077;28;20557;-61
2021/11/03 12:18:47;;;;;;;26.27;16.23;;;7.40;99.90;;;;;;5040518;28;20620;-62
2021/11/03 12:21:17;;;;;;;26.40;17.60;;;7.50;99.90;;;;;;5073928;28;20205;-61
2021/11/03 12:23:48;;;;;;;24.63;17.33;;;7.60;99.90;;;;;;5073538;28;20229;-64
2021/11/03 12:26:43;;;;;;;26.23;17.90;;;7.70;99.90;;;;;;5073688;28;20213;-62
2021/11/03 12:29:36;;;;;;;30.43;17.87;;;7.50;99.90;;;;;;5074005;28;20205;-66
2021/11/03 12:32:04;;;;;;;32.30;19.40;;;7.50;99.90;;;;;;5073551;28;20308;-62
2021/11/03 12:34:34;;;;;;;27.37;17.80;;;7.50;99.90;;;;;;5073384;28;20208;-62
2021/11/03 12:37:29;;;;;;;30.17;19.07;;;7.50;99.90;;;;;;5073709;28;20205;-62
2021/11/03 12:40:04;;;;;;;28.87;19.63;;;7.40;99.90;;;;;;5073893;28;20236;-61
2021/11/03 12:42:34;;;;;;;31.47;19.63;;;7.40;99.90;;;;;;5073602;28;20286;-61
2021/11/03 12:45:18;;;;;;;27.77;18.83;;;7.30;99.90;;;;;;5073159;28;20205;-60
2021/11/03 12:47:49;;;;;;;29.90;18.47;;;7.30;99.90;;;;;;5073736;28;20216;-61
2021/11/03 12:50:18;;;;;;;29.10;17.33;;;7.40;99.90;;;;;;5073447;28;20209;-62
2021/11/03 12:52:48;;;;;;;32.80;19.27;;;7.20;1.00;;;;;;5073194;28;20279;-61
2021/11/03 12:55:24;;;;;;;29.50;18.80;;;7.10;1.00;;;;;;5072721;28;20208;-59
2021/11/03 12:57:52;;;;;;;30.07;19.57;;;7.10;21.00;;;;;;5073755;28;20208;-60